Aérodrome :
LOGIN :

S'inscrire | Disclaimer

   EN    FR    IT 

 










Légende :    VFR   VFR Marginal   IFR   IFR Intensif   IFR Très Intensif
Visi : 
Plafond : 
>= 8 km
>= 3000ft
5 à 8 km
1000 à 3000 ft
1500m à 5 km
500 à 1000 ft
800 à 1500m
200 à 500 ft
< 800m
< 200 ft
Symboles :   Orages  Brouillard  Fortes neiges  Fortes précipitations  Vent > 20 kt
SIGMETs :   Divers  Orages  Givrage  Turbulence  Onde Orograph.  Cendres Volcan.







- Altitude de l'aérodrome : 18 ft
- Code IATA : AJA
- Voir les cartes d'approche


LFKJ - Ajaccio

DERNIER METAR :
  • 281200Z 21017KT 9999 FEW020 SCT036 29/22 Q1004 NOSIG

METARs EXPIRÉS :
  • 281130Z 21020KT 9999 FEW020 SCT036 29/22 Q1004 NOSIG
  • 281100Z 21021KT 9999 FEW030 30/20 Q1004 NOSIG
  • 281030Z 20021KT 9999 FEW066 32/19 Q1004 NOSIG
  • 281000Z 21018KT 9999 FEW066 32/18 Q1003 NOSIG
  • 280930Z 19013KT 9999 FEW066 33/17 Q1003 NOSIG

TAF TAF LFKJ
Valide du 28 à 09h jusqu'au 29 à 09h UTC


280800Z 2809/2909 23010KT 9999 FEW066 BKN110
BECMG 2809/2811 23015G25KT -SHRA FEW020 BKN040
PROB30
TEMPO 2809/2821 -TSRA SCT030CB
BECMG 2821/2823 VRB05KT
ATIS : +33 4 95 23 59 85
Pas de NOTAMs connus pour ce terrain.
1 SIGMET publié pour la FIR Marseille (LFMM) :
 
Orages noyés dans la masse
LFMM SIGMET 9 VALID 281100/281300 LFPW
LFMM MARSEILLE FIR/UIR EMBD TS OBS AT 1100Z WI N4445 E00700 - N4400 E00700 - N4345 E00800 - N4230 E00730 - N4230 E00630 - N4415 E00600 TOP FL330 MOV NE 25KT NC=



MET'MAP, la Météo Aéronautique d'un coup d'oeil ! - Copyright ORBIFLY Décembre 2007 - Disclaimer

ORBIFLY MET'MAP TEAM :

Programmation & Développement : Alexandra Zaïnal
Conception & Développement : Baudouin d'Aumeries
Co-Programmation & Développement : Marc-Olivier Méhu
Soutien technique & logistique : Manuel Goepfert

Contact : metmap@orbifly.com




SOURCES & CREDITS :

   NOAA